Time;durP1;ratioP1;P1;durP2;ratioP2;P2;SDS_P1;SDS_P2;PMS_P1;PMS_P2;Temp;Humidity;BMP_temperature;BMP_pressure;BME280_temperature;BME280_humidity;BME280_pressure;Samples;Min_cycle;Max_cycle;Signal;HPM_P1;HPM_P2
2022/01/24 00:00:17;;;;;;;0.60;0.60;;;;;;;0.21;82.66;98459.41;29373;348;63005;-68
2022/01/24 00:00:48;;;;;;;0.60;0.60;;;;;;;0.22;82.63;98469.09;29373;301;63027;-67
2022/01/24 00:01:20;;;;;;;0.57;0.57;;;;;;;0.20;82.90;98456.94;29373;202;63009;-66
2022/01/24 00:01:53;;;;;;;0.60;0.60;;;;;;;0.19;82.75;98463.28;29373;243;63009;-68
2022/01/24 00:02:27;;;;;;;0.60;0.60;;;;;;;0.17;82.70;98460.81;29371;207;64009;-67
2022/01/24 00:02:59;;;;;;;0.60;0.60;;;;;;;0.16;82.93;98459.16;29373;199;63009;-68
2022/01/24 00:03:30;;;;;;;0.60;0.60;;;;;;;0.16;83.07;98453.81;29373;220;63004;-68
2022/01/24 00:04:02;;;;;;;0.60;0.60;;;;;;;0.15;83.01;98448.66;29373;208;63008;-68
2022/01/24 00:04:34;;;;;;;0.60;0.60;;;;;;;0.15;82.92;98448.66;29373;256;63005;-66
2022/01/24 00:05:06;;;;;;;0.60;0.60;;;;;;;0.16;83.15;98453.81;29371;240;64014;-67
2022/01/24 00:05:38;;;;;;;0.60;0.60;;;;;;;0.16;83.17;98452.97;29373;211;63005;-55
2022/01/24 00:06:12;;;;;;;0.60;0.60;;;;;;;0.16;82.99;98445.81;29373;268;63009;-69
2022/01/24 00:06:44;;;;;;;0.60;0.60;;;;;;;0.15;82.90;98446.81;29371;202;64009;-68
2022/01/24 00:07:19;;;;;;;0.70;0.70;;;;;;;0.16;83.22;98447.66;29373;226;63009;-67
2022/01/24 00:07:50;;;;;;;0.60;0.60;;;;;;;0.15;83.20;98444.16;29373;222;63005;-55
2022/01/24 00:08:22;;;;;;;0.60;0.60;;;;;;;0.16;83.32;98444.97;29373;213;63009;-66
2022/01/24 00:08:53;;;;;;;0.60;0.60;;;;;;;0.16;83.35;98436.97;29373;218;63004;-68
2022/01/24 00:09:25;;;;;;;0.60;0.60;;;;;;;0.14;83.24;98439.00;29373;197;63009;-69
2022/01/24 00:09:59;;;;;;;0.60;0.60;;;;;;;0.10;83.04;98438.53;29373;262;63004;-67
2022/01/24 00:10:31;;;;;;;0.60;0.60;;;;;;;0.08;83.11;98439.75;29373;196;63009;-67
2022/01/24 00:11:09;;;;;;;0.60;0.60;;;;;;;0.10;82.96;98435.06;29373;212;63004;-67
2022/01/24 00:11:49;;;;;;;0.60;0.60;;;;;;;0.09;83.10;98431.56;29373;208;63024;-69
2022/01/24 00:15:09;;;;;;;0.60;0.60;;;;;;;0.12;83.24;98430.34;29395;225;63009;-66
2022/01/24 00:16:02;;;;;;;0.60;0.60;;;;;;;0.07;82.92;98424.75;29395;252;63005;-67
2022/01/24 00:17:36;;;;;;;0.60;0.60;;;;;;;0.10;83.14;98445.72;29371;248;64009;-68
2022/01/24 00:18:14;;;;;;;0.60;0.60;;;;;;;0.09;83.19;98431.56;29373;227;63009;-67
2022/01/24 00:27:13;;;;;;;0.60;0.60;;;;;;;-0.03;83.32;98420.56;29373;202;63005;-67
2022/01/24 00:27:44;;;;;;;0.60;0.60;;;;;;;-0.03;83.09;98425.91;29373;210;63009;-67
2022/01/24 00:28:19;;;;;;;0.73;0.73;;;;;;;-0.03;83.19;98425.06;29371;217;64009;-66
2022/01/24 00:28:53;;;;;;;0.60;0.60;;;;;;;-0.04;83.28;98426.09;29373;197;63009;-68
2022/01/24 00:29:26;;;;;;;1.02;1.02;;;;;;;-0.04;83.49;98418.09;29373;209;63005;-67
2022/01/24 00:29:57;;;;;;;0.60;0.60;;;;;;;-0.04;83.40;98418.91;29373;238;63009;-67
2022/01/24 00:30:33;;;;;;;0.60;0.60;;;;;;;-0.02;83.42;98419.56;29373;218;63016;-67
2022/01/24 00:31:05;;;;;;;0.60;0.60;;;;;;;-0.06;83.47;98415.59;29373;225;63009;-67
2022/01/24 00:31:36;;;;;;;0.65;0.65;;;;;;;-0.08;83.56;98417.63;29373;235;63000;-68
2022/01/24 00:32:08;;;;;;;0.60;0.60;;;;;;;-0.08;83.49;98417.63;29373;231;63015;-56
2022/01/24 00:32:39;;;;;;;0.60;0.60;;;;;;;-0.07;83.62;98423.78;29373;235;63004;-69
2022/01/24 00:33:10;;;;;;;0.60;0.60;;;;;;;-0.09;83.39;98421.31;29373;239;63008;-69
2022/01/24 00:33:41;;;;;;;0.60;0.60;;;;;;;-0.09;83.34;98421.31;29371;202;64009;-69
2022/01/24 00:34:14;;;;;;;0.60;0.60;;;;;;;-0.10;83.89;98419.66;29373;267;63009;-67
2022/01/24 00:34:46;;;;;;;0.60;0.60;;;;;;;-0.10;83.70;98424.16;29373;331;63005;-67
2022/01/24 00:35:17;;;;;;;0.60;0.60;;;;;;;-0.11;83.96;98423.34;29373;264;63009;-67
2022/01/24 00:35:50;;;;;;;0.60;0.60;;;;;;;-0.11;83.72;98426.00;29373;251;63005;-67
2022/01/24 00:36:21;;;;;;;0.60;0.60;;;;;;;-0.13;83.79;98425.38;29373;216;63009;-66
2022/01/24 00:36:53;;;;;;;0.60;0.60;;;;;;;-0.15;83.49;98424.72;29373;203;63018;-66
2022/01/24 00:37:29;;;;;;;0.60;0.60;;;;;;;-0.16;83.42;98424.91;29373;269;63009;-67
2022/01/24 00:38:01;;;;;;;0.60;0.60;;;;;;;-0.17;83.79;98418.75;29373;203;63004;-66
2022/01/24 00:38:33;;;;;;;0.60;0.60;;;;;;;-0.16;83.91;98424.91;29373;266;63009;-69
2022/01/24 00:39:06;;;;;;;0.60;0.60;;;;;;;-0.17;83.76;98418.75;29371;250;64009;-68
2022/01/24 00:39:38;;;;;;;0.60;0.60;;;;;;;-0.19;83.89;98426.09;29373;279;63009;-69
2022/01/24 00:40:11;;;;;;;0.60;0.60;;;;;;;-0.19;83.81;98418.09;29373;212;63004;-66
2022/01/24 00:40:46;;;;;;;0.60;0.60;;;;;;;-0.18;83.88;98421.59;29371;278;64013;-68
2022/01/24 00:41:19;;;;;;;0.60;0.60;;;;;;;-0.18;83.99;98417.09;29373;222;63005;-68
2022/01/24 00:42:54;;;;;;;0.65;0.65;;;;;;;-0.21;83.97;98412.12;29373;217;63005;-67
2022/01/24 00:43:50;;;;;;;0.70;0.70;;;;;;;-0.20;84.04;98412.97;29371;214;64013;-68
2022/01/24 00:46:16;;;;;;;0.60;0.60;;;;;;;-0.19;84.13;98419.94;29373;202;63004;-67
2022/01/24 00:46:54;;;;;;;0.70;0.70;;;;;;;-0.18;84.21;98410.94;29373;247;63009;-67
2022/01/24 00:47:39;;;;;;;0.60;0.60;;;;;;;-0.20;84.00;98413.78;29373;331;63004;-67
2022/01/24 00:48:29;;;;;;;0.60;0.60;;;;;;;-0.20;84.34;98410.28;29371;295;64013;-68
2022/01/24 00:49:22;;;;;;;0.70;0.70;;;;;;;-0.21;84.15;98412.12;29373;293;63005;-68
2022/01/24 00:53:49;;;;;;;0.70;0.70;;;;;;;-0.35;84.71;98415.66;29371;229;64013;-67
2022/01/24 00:55:11;;;;;;;1.80;1.80;;;;;;;-0.35;84.57;98405.78;29373;202;63009;-68
2022/01/24 00:55:44;;;;;;;0.70;0.70;;;;;;;-0.35;84.65;98405.00;29373;243;63004;-68
2022/01/24 00:56:15;;;;;;;0.70;0.70;;;;;;;-0.34;84.58;98409.28;29371;251;64013;-69
2022/01/24 00:56:46;;;;;;;0.70;0.70;;;;;;;-0.34;84.56;98404.78;29373;252;63005;-67
2022/01/24 00:57:19;;;;;;;0.60;0.60;;;;;;;-0.31;84.71;98408.09;29373;222;63009;-68
2022/01/24 00:57:51;;;;;;;0.70;0.70;;;;;;;-0.31;84.85;98405.44;29373;238;63005;-67
2022/01/24 00:58:22;;;;;;;0.60;0.60;;;;;;;-0.30;84.76;98410.56;29373;276;63009;-67
2022/01/24 00:58:53;;;;;;;0.60;0.60;;;;;;;-0.30;84.59;98407.91;29373;213;63005;-69
2022/01/24 00:59:25;;;;;;;0.60;0.60;;;;;;;-0.30;84.64;98402.56;29373;213;63009;-68
2022/01/24 00:59:56;;;;;;;0.60;0.60;;;;;;;-0.29;84.70;98403.41;29372;244;64005;-70
2022/01/24 01:00:27;;;;;;;0.60;0.60;;;;;;;-0.30;84.36;98402.56;29371;225;64013;-70
2022/01/24 01:00:59;;;;;;;1.50;1.50;;;;;;;-0.30;84.68;98399.91;29373;202;63004;-70
2022/01/24 01:01:30;;;;;;;0.60;0.60;;;;;;;-0.30;84.33;98397.25;29373;292;63009;-69
2022/01/24 01:02:02;;;;;;;0.60;0.60;;;;;;;-0.29;84.67;98398.06;29373;212;63004;-67
2022/01/24 01:02:33;;;;;;;0.60;0.60;;;;;;;-0.30;84.65;98399.06;29373;196;63009;-68
2022/01/24 01:03:04;;;;;;;0.70;0.70;;;;;;;-0.30;84.58;98397.25;29373;219;63017;-68
2022/01/24 01:03:35;;;;;;;0.70;0.70;;;;;;;-0.31;84.64;98400.91;29373;256;63008;-69
2022/01/24 01:04:06;;;;;;;0.70;0.70;;;;;;;-0.32;84.95;98407.25;29373;291;63002;-67
2022/01/24 01:05:55;;;;;;;0.65;0.65;;;;;;;-0.31;84.69;98400.09;29393;306;64009;-70
2022/01/24 01:06:26;;;;;;;0.60;0.60;;;;;;;-0.33;85.17;98402.94;29395;250;63009;-68
2022/01/24 01:07:04;;;;;;;0.70;0.70;;;;;;;-0.35;84.90;98399.66;29373;273;63005;-70
2022/01/24 01:18:30;;;;;;;0.70;0.70;;;;;;;-0.36;85.01;98412.19;29373;213;63004;-69
2022/01/24 01:19:03;;;;;;;0.60;0.60;;;;;;;-0.36;84.89;98416.69;29373;245;63009;-68
2022/01/24 01:19:34;;;;;;;0.60;0.60;;;;;;;-0.37;84.89;98428.34;29373;256;63005;-67
2022/01/24 01:20:06;;;;;;;0.60;0.60;;;;;;;-0.37;84.87;98423.03;29373;225;63009;-67
2022/01/24 01:21:06;;;;;;;0.70;0.70;;;;;;;-0.36;84.83;98419.34;29373;208;63005;-66
2022/01/24 01:21:31;;;;;;;0.60;0.60;;;;;;;-0.37;84.59;98420.34;29373;202;63009;-68
2022/01/24 01:22:05;;;;;;;0.60;0.60;;;;;;;-0.36;84.85;98422.00;29373;198;63008;-68
2022/01/24 01:22:36;;;;;;;0.70;0.70;;;;;;;-0.37;84.63;98428.34;29373;239;63009;-69
2022/01/24 01:23:08;;;;;;;0.62;0.62;;;;;;;-0.37;84.64;98425.69;29371;263;64009;-67
2022/01/24 01:23:50;;;;;;;0.70;0.70;;;;;;;-0.37;84.81;98429.19;29373;208;63009;-70
2022/01/24 01:24:23;;;;;;;0.60;0.60;;;;;;;-0.38;84.46;98432.03;29373;218;63004;-67
2022/01/24 01:24:55;;;;;;;0.70;0.70;;;;;;;-0.40;84.76;98429.56;29373;206;63009;-66
2022/01/24 01:25:26;;;;;;;0.60;0.60;;;;;;;-0.41;84.61;98429.75;29373;223;63004;-67
2022/01/24 01:26:02;;;;;;;0.70;0.70;;;;;;;-0.40;84.51;98434.06;29373;203;63015;-68
2022/01/24 01:26:39;;;;;;;0.60;0.60;;;;;;;-0.39;84.77;98430.37;29371;244;64009;-67
2022/01/24 01:27:17;;;;;;;0.60;0.60;;;;;;;-0.39;84.79;98435.72;29373;197;63009;-68
2022/01/24 01:27:50;;;;;;;0.60;0.60;;;;;;;-0.39;84.62;98441.06;29373;200;63005;-67
2022/01/24 01:28:23;;;;;;;0.60;0.60;;;;;;;-0.40;84.54;98434.06;29373;257;63009;-69
2022/01/24 01:29:19;;;;;;;0.70;0.70;;;;;;;-0.42;84.78;98436.09;29373;213;63005;-68
2022/01/24 01:30:01;;;;;;;0.60;0.60;;;;;;;-0.41;84.82;98424.41;29373;248;63016;-65
2022/01/24 01:30:39;;;;;;;0.70;0.70;;;;;;;-0.42;84.81;98436.91;29373;205;63004;-67
2022/01/24 01:31:20;;;;;;;0.60;0.60;;;;;;;-0.42;85.03;98433.41;29373;202;63009;-66
2022/01/24 01:32:15;;;;;;;0.70;0.70;;;;;;;-0.42;85.15;98436.09;29393;212;64009;-70
2022/01/24 01:33:01;;;;;;;0.62;0.62;;;;;;;-0.42;85.09;98425.41;29395;246;63008;-68
2022/01/24 01:33:37;;;;;;;0.70;0.70;;;;;;;-0.42;85.02;98433.41;29371;262;64008;-68
2022/01/24 01:36:35;;;;;;;0.70;0.70;;;;;;;-0.42;85.34;98428.09;29371;224;64013;-68
2022/01/24 01:38:23;;;;;;;0.68;0.68;;;;;;;-0.41;85.21;98424.41;29373;227;63009;-68
2022/01/24 01:40:06;;;;;;;0.60;0.60;;;;;;;-0.46;85.32;98419.62;29395;224;63009;-67
2022/01/24 01:52:41;;;;;;;0.70;0.70;;;;;;;-0.59;85.96;98423.94;29395;216;63005;-67
2022/01/24 01:54:49;;;;;;;0.68;0.68;;;;;;;-0.62;86.21;98418.97;29373;236;63004;-68
2022/01/24 01:55:24;;;;;;;0.65;0.65;;;;;;;-0.63;86.22;98422.66;29373;234;63008;-67
2022/01/24 01:55:56;;;;;;;0.70;0.70;;;;;;;-0.62;86.37;98421.66;29373;228;63005;-67
2022/01/24 01:56:27;;;;;;;0.60;0.60;;;;;;;-0.62;86.23;98422.47;29371;227;64014;-68
2022/01/24 01:57:01;;;;;;;0.70;0.70;;;;;;;-0.61;85.93;98421.47;29373;262;63005;-68
2022/01/24 01:57:32;;;;;;;0.60;0.60;;;;;;;-0.61;86.22;98415.31;29373;252;63009;-68
2022/01/24 01:58:15;;;;;;;0.70;0.70;;;;;;;-0.61;86.16;98415.31;29373;213;63005;-66
2022/01/24 01:58:47;;;;;;;0.60;0.60;;;;;;;-0.61;86.21;98413.47;29372;206;63009;-67
2022/01/24 01:59:18;;;;;;;0.70;0.70;;;;;;;-0.61;86.28;98420.63;29373;246;63005;-56
2022/01/24 01:59:50;;;;;;;0.60;0.60;;;;;;;-0.61;86.02;98415.31;29373;248;63009;-67
2022/01/24 02:00:21;;;;;;;0.60;0.60;;;;;;;-0.61;86.24;98417.97;29373;203;63004;-69
2022/01/24 02:00:58;;;;;;;0.70;0.70;;;;;;;-0.60;86.41;98414.28;29372;202;64009;-68
2022/01/24 02:01:29;;;;;;;0.70;0.70;;;;;;;-0.59;86.10;98421.28;29371;255;64009;-68
2022/01/24 02:02:00;;;;;;;0.60;0.60;;;;;;;-0.57;86.36;98416.59;29373;198;63009;-69
2022/01/24 02:02:32;;;;;;;0.70;0.70;;;;;;;-0.57;86.19;98417.41;29373;213;63004;-67
2022/01/24 02:03:03;;;;;;;0.60;0.60;;;;;;;-0.56;86.14;98420.91;29373;210;63008;-69
2022/01/24 02:03:34;;;;;;;0.70;0.70;;;;;;;-0.57;86.02;98416.59;29373;216;63005;-69
2022/01/24 02:04:05;;;;;;;0.70;0.70;;;;;;;-0.56;86.20;98418.25;29373;214;63009;-69
2022/01/24 02:04:39;;;;;;;0.60;0.60;;;;;;;-0.58;86.27;98414.94;29373;213;63005;-70
2022/01/24 02:05:10;;;;;;;0.70;0.70;;;;;;;-0.59;86.34;98422.09;29373;203;63013;-66
2022/01/24 02:05:42;;;;;;;0.70;0.70;;;;;;;-0.59;86.46;98418.63;29373;234;63005;-68
2022/01/24 02:06:13;;;;;;;0.60;0.60;;;;;;;-0.63;86.47;98428.00;29373;203;63009;-67
2022/01/24 02:06:44;;;;;;;0.60;0.60;;;;;;;-0.71;86.33;98420.94;29371;243;64009;-69
2022/01/24 02:07:17;;;;;;;0.70;0.70;;;;;;;-0.75;86.81;98425.81;29373;208;63009;-67
2022/01/24 02:07:50;;;;;;;0.60;0.60;;;;;;;-0.75;86.87;98425.81;29373;230;63004;-66
2022/01/24 02:08:22;;;;;;;0.60;0.60;;;;;;;-0.75;87.01;98424.97;29373;210;63009;-68
2022/01/24 02:09:02;;;;;;;0.60;0.60;;;;;;;-0.74;86.75;98422.13;29373;274;63004;-69
2022/01/24 02:09:34;;;;;;;0.70;0.70;;;;;;;-0.74;86.75;98416.78;29373;276;63009;-68
2022/01/24 02:10:06;;;;;;;0.70;0.70;;;;;;;-0.72;86.77;98417.44;29373;246;63004;-68
2022/01/24 02:10:41;;;;;;;0.80;0.80;;;;;;;-0.71;86.92;98420.94;29373;238;63008;-68
2022/01/24 02:11:16;;;;;;;0.93;0.93;;;;;;;-0.70;86.77;98418.09;29373;197;63005;-67
2022/01/24 02:11:52;;;;;;;0.68;0.68;;;;;;;-0.69;86.94;98414.38;29371;197;64014;-68
2022/01/24 02:12:26;;;;;;;0.70;0.70;;;;;;;-0.69;86.72;98417.03;29373;263;63005;-68
2022/01/24 02:12:57;;;;;;;0.70;0.70;;;;;;;-0.73;86.77;98421.13;29371;236;64013;-67
2022/01/24 02:13:30;;;;;;;0.70;0.70;;;;;;;-0.76;86.86;98418.81;29373;202;63005;-69
2022/01/24 02:14:06;;;;;;;0.70;0.70;;;;;;;-0.76;86.90;98413.47;29371;261;64013;-68
2022/01/24 02:14:47;;;;;;;0.60;0.60;;;;;;;-0.75;86.99;98409.81;29373;203;63005;-69
2022/01/24 02:15:36;;;;;;;0.68;0.68;;;;;;;-0.74;86.88;98415.97;29373;236;63009;-56
2022/01/24 02:17:05;;;;;;;0.70;0.70;;;;;;;-0.74;86.94;98416.78;29395;204;63024;-66
2022/01/24 02:17:55;;;;;;;0.70;0.70;;;;;;;-0.73;86.63;98412.28;29394;214;64009;-69
2022/01/24 02:18:34;;;;;;;0.80;0.80;;;;;;;-0.75;86.57;98419.66;29373;225;63008;-70
2022/01/24 02:20:12;;;;;;;0.70;0.70;;;;;;;-0.82;86.79;98419.53;29373;197;63014;-56
2022/01/24 02:21:58;;;;;;;0.60;0.60;;;;;;;-0.88;86.65;98414.94;29395;215;63009;-68
2022/01/24 02:23:46;;;;;;;0.70;0.70;;;;;;;-0.87;86.68;98421.09;29371;212;64013;-67
2022/01/24 02:24:20;;;;;;;0.70;0.70;;;;;;;-0.85;87.03;98419.09;29373;220;63004;-68
2022/01/24 02:24:57;;;;;;;0.70;0.70;;;;;;;-0.85;86.95;98419.09;29371;202;64013;-69
2022/01/24 02:25:30;;;;;;;0.60;0.60;;;;;;;-0.84;86.85;98421.56;29373;215;63004;-67
2022/01/24 02:26:06;;;;;;;0.62;0.62;;;;;;;-0.85;86.79;98413.75;29373;216;63008;-67
2022/01/24 02:26:40;;;;;;;0.60;0.60;;;;;;;-0.86;86.93;98412.09;29373;199;63005;-70
2022/01/24 02:27:12;;;;;;;0.60;0.60;;;;;;;-0.85;86.88;98414.56;29373;208;63016;-68
2022/01/24 02:27:53;;;;;;;0.60;0.60;;;;;;;-0.84;86.60;98416.22;29371;204;64009;-67
2022/01/24 02:28:28;;;;;;;0.70;0.70;;;;;;;-0.82;86.81;98413.38;29395;208;63009;-68
2022/01/24 02:29:28;;;;;;;0.60;0.60;;;;;;;-0.83;87.01;98420.56;29395;249;63005;-68
2022/01/24 02:30:36;;;;;;;0.60;0.60;;;;;;;-0.83;86.91;98411.72;29373;207;63009;-66
2022/01/24 02:31:21;;;;;;;0.60;0.60;;;;;;;-0.83;86.68;98412.56;29373;202;63007;-67
2022/01/24 02:31:55;;;;;;;0.60;0.60;;;;;;;-0.81;86.92;98415.03;29373;202;63009;-67
2022/01/24 02:32:26;;;;;;;0.60;0.60;;;;;;;-0.80;86.69;98417.53;29373;202;63004;-67
2022/01/24 02:33:03;;;;;;;0.60;0.60;;;;;;;-0.80;86.72;98417.53;29371;220;64014;-67
2022/01/24 02:33:34;;;;;;;0.60;0.60;;;;;;;-0.80;86.98;98409.53;29373;231;63005;-68
2022/01/24 02:34:33;;;;;;;0.60;0.60;;;;;;;-0.81;86.89;98418.53;29373;202;63009;-67
2022/01/24 02:35:06;;;;;;;0.60;0.60;;;;;;;-0.81;87.08;98407.87;29373;210;63005;-67
2022/01/24 02:35:37;;;;;;;0.60;0.60;;;;;;;-0.81;86.83;98407.03;29373;230;63009;-68
2022/01/24 02:36:11;;;;;;;0.60;0.60;;;;;;;-0.82;87.26;98406.22;29373;254;63005;-68
2022/01/24 02:36:46;;;;;;;0.60;0.60;;;;;;;-0.81;86.98;98407.87;29373;222;63009;-68
2022/01/24 02:37:20;;;;;;;0.60;0.60;;;;;;;-0.82;87.12;98403.56;29373;212;63004;-68
2022/01/24 02:37:51;;;;;;;0.70;0.70;;;;;;;-0.81;86.87;98405.22;29373;210;63009;-67
2022/01/24 02:40:11;;;;;;;0.60;0.60;;;;;;;-0.81;86.98;98410.53;29373;225;63005;-67
2022/01/24 02:45:59;;;;;;;0.65;0.65;;;;;;;-0.83;86.89;98399.22;29395;198;63009;-68
2022/01/24 02:48:23;;;;;;;0.60;0.60;;;;;;;-0.92;87.25;98407.50;29374;209;63009;-69
2022/01/24 02:48:33;;;;;;;0.60;0.60;;;;;;;-0.97;86.89;98405.38;29372;274;64009;-68
2022/01/24 02:49:04;;;;;;;0.60;0.60;;;;;;;-1.02;87.15;98391.75;29374;249;63009;-66
2022/01/24 02:49:35;;;;;;;0.60;0.60;;;;;;;-1.03;86.95;98396.25;29374;213;63005;-68
2022/01/24 02:50:08;;;;;;;0.70;0.70;;;;;;;-1.03;87.08;98393.59;29374;197;63016;-67
2022/01/24 02:51:45;;;;;;;0.60;0.60;;;;;;;-1.01;87.31;98390.75;29374;249;63009;-68
2022/01/24 02:52:17;;;;;;;0.60;0.60;;;;;;;-1.01;87.40;98390.75;29374;227;63004;-68
2022/01/24 02:52:49;;;;;;;0.60;0.60;;;;;;;-1.01;87.10;98388.91;29374;196;63009;-67
2022/01/24 02:53:20;;;;;;;0.60;0.60;;;;;;;-0.99;87.23;98402.06;29374;232;63010;-67
2022/01/24 02:53:51;;;;;;;0.60;0.60;;;;;;;-0.99;87.54;98396.72;29372;231;64013;-67
2022/01/24 02:54:27;;;;;;;0.60;0.60;;;;;;;-1.00;87.36;98389.75;29374;216;63004;-67
2022/01/24 02:54:58;;;;;;;0.60;0.60;;;;;;;-1.00;87.37;98384.41;29374;198;63008;-67
2022/01/24 02:55:29;;;;;;;1.73;1.73;;;;;;;-0.98;87.62;98386.91;29374;232;63015;-67
2022/01/24 02:56:02;;;;;;;0.60;0.60;;;;;;;-0.99;87.54;98385.25;29374;206;63017;-67
2022/01/24 02:56:33;;;;;;;0.60;0.60;;;;;;;-1.00;87.18;98395.06;29374;228;63005;-67
2022/01/24 02:57:07;;;;;;;0.60;0.60;;;;;;;-1.01;87.15;98391.59;29374;236;63009;-70
2022/01/24 02:57:38;;;;;;;0.60;0.60;;;;;;;-1.00;87.54;98384.41;29374;197;63005;-70
2022/01/24 02:58:10;;;;;;;0.60;0.60;;;;;;;-1.02;87.27;98391.75;29374;234;63009;-68
2022/01/24 02:58:41;;;;;;;0.60;0.60;;;;;;;-1.04;87.38;98388.50;29372;231;64009;-68
2022/01/24 02:59:12;;;;;;;0.60;0.60;;;;;;;-1.05;87.56;98389.50;29372;199;64003;-69
2022/01/24 02:59:43;;;;;;;0.70;0.70;;;;;;;-1.04;87.36;98388.50;29374;205;63008;-67
2022/01/24 03:00:18;;;;;;;0.60;0.60;;;;;;;-1.03;87.28;98390.09;29374;214;63009;-67
2022/01/24 03:00:54;;;;;;;0.60;0.60;;;;;;;-1.03;87.34;98385.59;29374;265;63008;-56
2022/01/24 03:01:25;;;;;;;0.60;0.60;;;;;;;-1.04;87.31;98391.16;29374;204;63009;-69
2022/01/24 03:01:56;;;;;;;0.60;0.60;;;;;;;-1.06;87.44;98390.50;29374;217;63009;-67
2022/01/24 03:02:27;;;;;;;1.23;1.23;;;;;;;-1.07;87.46;98388.84;29374;196;63016;-68
2022/01/24 03:02:59;;;;;;;0.60;0.60;;;;;;;-1.08;87.38;98392.53;29372;197;64009;-67
2022/01/24 03:03:30;;;;;;;0.60;0.60;;;;;;;-1.06;87.35;98390.50;29374;262;63009;-56
2022/01/24 03:04:01;;;;;;;0.60;0.60;;;;;;;-1.07;87.58;98394.19;29372;200;64009;-68
2022/01/24 03:04:32;;;;;;;0.60;0.60;;;;;;;-1.08;87.38;98384.53;29374;236;63009;-67
2022/01/24 03:05:04;;;;;;;0.60;0.60;;;;;;;-1.07;87.41;98383.53;29374;262;63005;-67
2022/01/24 03:05:36;;;;;;;0.60;0.60;;;;;;;-1.05;87.51;98392.16;29374;210;63016;-56
2022/01/24 03:06:07;;;;;;;0.60;0.60;;;;;;;-1.04;87.51;98388.50;29374;233;63005;-67
2022/01/24 03:06:38;;;;;;;0.60;0.60;;;;;;;-1.05;87.76;98384.16;29372;246;64013;-70
2022/01/24 03:07:09;;;;;;;0.60;0.60;;;;;;;-1.08;87.36;98387.19;29372;238;64009;-68
2022/01/24 03:07:41;;;;;;;0.60;0.60;;;;;;;-1.07;87.64;98386.19;29374;227;63009;-66
2022/01/24 03:08:14;;;;;;;0.60;0.60;;;;;;;-1.07;87.66;98384.34;29374;202;63004;-67
2022/01/24 03:08:45;;;;;;;0.70;0.70;;;;;;;-1.06;87.78;98385.19;29374;230;63009;-67
2022/01/24 03:09:17;;;;;;;0.60;0.60;;;;;;;-1.06;87.57;98382.50;29374;202;63004;-69
2022/01/24 03:09:49;;;;;;;0.60;0.60;;;;;;;-1.05;87.41;98384.16;29374;236;63008;-67
2022/01/24 03:10:27;;;;;;;0.60;0.60;;;;;;;-1.05;87.54;98378.84;29372;205;64004;-67
2022/01/24 03:11:00;;;;;;;0.60;0.60;;;;;;;-1.05;87.66;98384.16;29374;244;63009;-68
2022/01/24 03:11:58;;;;;;;0.60;0.60;;;;;;;-1.05;87.46;98378.84;29374;248;63005;-68
2022/01/24 03:12:42;;;;;;;0.60;0.60;;;;;;;-1.03;87.45;98380.28;29374;268;63009;-56
2022/01/24 03:14:18;;;;;;;0.60;0.60;;;;;;;-1.05;87.93;98374.34;29372;252;64013;-69
2022/01/24 03:14:49;;;;;;;0.60;0.60;;;;;;;-1.06;87.62;98380.69;29374;220;63004;-67
2022/01/24 03:15:20;;;;;;;0.60;0.60;;;;;;;-1.06;87.76;98377.19;29374;203;63009;-69
2022/01/24 03:15:54;;;;;;;0.60;0.60;;;;;;;-1.08;87.51;98376.53;29375;204;63004;-69
2022/01/24 03:16:25;;;;;;;0.60;0.60;;;;;;;-1.12;87.45;98372.59;29375;220;63009;-68
2022/01/24 03:16:56;;;;;;;0.60;0.60;;;;;;;-1.12;87.65;98375.25;29375;202;63004;-67
2022/01/24 03:17:28;;;;;;;0.60;0.60;;;;;;;-1.12;87.48;98362.75;29375;204;63008;-69
2022/01/24 03:17:59;;;;;;;0.60;0.60;;;;;;;-1.09;87.48;98369.56;29373;243;64008;-68
2022/01/24 03:18:30;;;;;;;0.60;0.60;;;;;;;-1.08;87.62;98373.88;29374;197;63009;-67
2022/01/24 03:19:01;;;;;;;0.60;0.60;;;;;;;-1.09;87.51;98367.72;29375;197;63005;-67
2022/01/24 03:19:33;;;;;;;0.60;0.60;;;;;;;-1.09;87.36;98369.56;29375;226;63018;-68
2022/01/24 03:20:06;;;;;;;0.60;0.60;;;;;;;-1.12;87.29;98372.59;29375;209;63005;-69
2022/01/24 03:20:37;;;;;;;0.60;0.60;;;;;;;-1.18;87.66;98375.97;29373;240;64013;-69
2022/01/24 03:21:09;;;;;;;0.60;0.60;;;;;;;-1.19;87.45;98369.00;29375;214;63005;-68
2022/01/24 03:21:43;;;;;;;0.60;0.60;;;;;;;-1.19;87.45;98372.47;29375;224;63009;-68
2022/01/24 03:22:15;;;;;;;0.60;0.60;;;;;;;-1.17;87.71;98374.97;29375;198;63005;-67
2022/01/24 03:22:46;;;;;;;0.60;0.60;;;;;;;-1.17;87.52;98372.28;29375;202;63009;-68
2022/01/24 03:23:20;;;;;;;0.60;0.60;;;;;;;-1.16;87.85;98368.63;29375;220;63004;-69
2022/01/24 03:23:51;;;;;;;0.60;0.60;;;;;;;-1.21;87.58;98377.16;29375;250;63009;-67
2022/01/24 03:24:24;;;;;;;0.60;0.60;;;;;;;-1.26;87.66;98368.06;29373;261;64009;-68
2022/01/24 03:24:56;;;;;;;0.60;0.60;;;;;;;-1.25;87.82;98367.03;29375;233;63008;-68
2022/01/24 03:25:28;;;;;;;0.60;0.60;;;;;;;-1.23;87.68;98378.34;29376;263;63004;-67
2022/01/24 03:25:59;;;;;;;0.60;0.60;;;;;;;-1.22;87.79;98372.00;29376;254;63009;-67
2022/01/24 03:26:31;;;;;;;0.60;0.60;;;;;;;-1.21;87.67;98371.00;29374;211;64009;-67
2022/01/24 03:27:03;;;;;;;0.60;0.60;;;;;;;-1.20;87.81;98367.34;29376;202;63009;-68
2022/01/24 03:27:34;;;;;;;2.45;2.35;;;;;;;-1.19;88.02;98374.31;29376;256;63005;-67
2022/01/24 03:28:06;;;;;;;0.60;0.60;;;;;;;-1.18;87.93;98370.66;29376;251;63009;-56
2022/01/24 03:28:39;;;;;;;0.98;0.95;;;;;;;-1.17;88.14;98373.12;29376;233;63005;-67
2022/01/24 03:29:10;;;;;;;0.73;0.73;;;;;;;-1.15;88.09;98370.28;29376;214;63015;-69
2022/01/24 03:29:42;;;;;;;0.60;0.60;;;;;;;-1.15;88.04;98370.28;29376;303;63004;-67
2022/01/24 03:30:13;;;;;;;0.60;0.60;;;;;;;-1.14;88.22;98363.94;29374;197;64013;-67
2022/01/24 03:30:45;;;;;;;0.60;0.60;;;;;;;-1.12;88.29;98369.91;29376;231;63004;-67
2022/01/24 03:31:16;;;;;;;0.60;0.60;;;;;;;-1.10;88.35;98367.91;29376;215;63026;-68
2022/01/24 03:31:47;;;;;;;0.60;0.60;;;;;;;-1.11;88.24;98369.75;29376;215;63004;-66
2022/01/24 03:32:18;;;;;;;6.32;3.00;;;;;;;-1.08;88.00;98365.88;29376;208;63008;-68
2022/01/24 03:32:50;;;;;;;0.60;0.60;;;;;;;-1.06;88.15;98371.84;29376;243;63004;-69
2022/01/24 03:33:22;;;;;;;0.60;0.60;;;;;;;-1.06;88.23;98366.53;29376;203;63009;-68
2022/01/24 03:33:54;;;;;;;0.60;0.60;;;;;;;-1.05;88.03;98370.84;29376;286;63005;-69
2022/01/24 03:34:25;;;;;;;0.60;0.60;;;;;;;-1.07;88.11;98363.03;29376;202;63009;-67
2022/01/24 03:34:56;;;;;;;0.62;0.62;;;;;;;-1.06;88.29;98367.34;29376;198;63005;-67
2022/01/24 03:35:28;;;;;;;0.60;0.60;;;;;;;-1.04;88.15;98369.84;29374;216;64013;-68
2022/01/24 03:35:59;;;;;;;1.25;1.25;;;;;;;-1.02;88.18;98379.28;29376;227;63005;-69
2022/01/24 03:36:31;;;;;;;0.60;0.60;;;;;;;-1.02;87.95;98365.94;29376;203;63021;-67
2022/01/24 03:37:05;;;;;;;0.60;0.60;;;;;;;-1.02;88.07;98365.13;29376;204;63004;-67
2022/01/24 03:37:37;;;;;;;0.60;0.60;;;;;;;-1.03;87.98;98369.63;29376;198;63009;-56
2022/01/24 03:38:09;;;;;;;0.60;0.60;;;;;;;-1.02;88.04;98365.13;29376;239;63004;-68
2022/01/24 03:38:40;;;;;;;0.60;0.60;;;;;;;-1.02;88.12;98367.78;29375;219;63009;-68
2022/01/24 03:39:13;;;;;;;0.60;0.60;;;;;;;-1.02;87.84;98368.63;29373;260;64008;-68
2022/01/24 03:39:44;;;;;;;0.60;0.60;;;;;;;-1.01;88.20;98377.44;29376;225;63008;-67
2022/01/24 03:40:15;;;;;;;0.60;0.60;;;;;;;-1.00;88.12;98371.09;29375;288;63005;-68
2022/01/24 03:40:46;;;;;;;0.60;0.60;;;;;;;-1.00;87.85;98368.44;29375;251;63018;-67
2022/01/24 03:41:17;;;;;;;0.60;0.60;;;;;;;-0.98;87.84;98371.75;29375;233;63013;-68
2022/01/24 03:41:48;;;;;;;0.60;0.60;;;;;;;-0.97;88.15;98367.25;29373;269;64013;-68
2022/01/24 03:42:20;;;;;;;0.60;0.60;;;;;;;-0.96;87.91;98375.06;29375;210;63005;-69
2022/01/24 03:42:51;;;;;;;0.60;0.60;;;;;;;-0.94;87.85;98372.22;29375;219;63009;-56
2022/01/24 03:43:22;;;;;;;0.60;0.60;;;;;;;-0.93;87.87;98372.03;29375;203;63005;-67
2022/01/24 03:44:00;;;;;;;0.60;0.60;;;;;;;-0.94;87.59;98367.72;29375;225;63009;-67
2022/01/24 03:44:31;;;;;;;0.60;0.60;;;;;;;-0.94;87.67;98367.72;29375;204;63016;-69
2022/01/24 03:45:06;;;;;;;0.60;0.60;;;;;;;-0.93;87.57;98371.19;29375;202;63009;-67
2022/01/24 03:45:44;;;;;;;0.60;0.60;;;;;;;-0.92;87.74;98371.00;29375;211;63017;-69
2022/01/24 03:47:29;;;;;;;0.60;0.60;;;;;;;-0.89;87.17;98378.66;29373;205;64008;-68
2022/01/24 03:48:07;;;;;;;0.60;0.60;;;;;;;-0.88;87.02;98372.31;29375;228;63009;-68
2022/01/24 03:48:49;;;;;;;0.60;0.60;;;;;;;-0.87;87.08;98379.28;29375;224;63005;-66